sensor_id;sensor_type;location;lat;lon;timestamp;P1;durP1;ratioP1;P2;durP2;ratioP2
12271;SDS011;6198;51.446;6.698;2023-03-11T00:01:54;9.80;;;3.10;;
12271;SDS011;6198;51.446;6.698;2023-03-11T00:04:20;4.10;;;2.60;;
12271;SDS011;6198;51.446;6.698;2023-03-11T00:06:46;6.70;;;3.27;;
12271;SDS011;6198;51.446;6.698;2023-03-11T00:09:11;3.57;;;2.70;;
12271;SDS011;6198;51.446;6.698;2023-03-11T00:11:37;11.57;;;3.20;;
12271;SDS011;6198;51.446;6.698;2023-03-11T00:14:03;5.03;;;2.77;;
12271;SDS011;6198;51.446;6.698;2023-03-11T00:16:29;5.23;;;2.93;;
12271;SDS011;6198;51.446;6.698;2023-03-11T00:18:55;5.83;;;2.97;;
12271;SDS011;6198;51.446;6.698;2023-03-11T00:21:22;8.03;;;3.10;;
12271;SDS011;6198;51.446;6.698;2023-03-11T00:23:48;8.47;;;2.73;;
12271;SDS011;6198;51.446;6.698;2023-03-11T00:26:14;7.83;;;3.03;;
12271;SDS011;6198;51.446;6.698;2023-03-11T00:28:40;6.90;;;3.00;;
12271;SDS011;6198;51.446;6.698;2023-03-11T00:31:06;9.40;;;3.17;;
12271;SDS011;6198;51.446;6.698;2023-03-11T00:33:32;8.40;;;3.03;;
12271;SDS011;6198;51.446;6.698;2023-03-11T00:35:58;10.37;;;3.60;;
12271;SDS011;6198;51.446;6.698;2023-03-11T00:38:24;10.43;;;3.10;;
12271;SDS011;6198;51.446;6.698;2023-03-11T00:40:50;5.67;;;3.30;;
12271;SDS011;6198;51.446;6.698;2023-03-11T00:43:16;6.57;;;3.20;;
12271;SDS011;6198;51.446;6.698;2023-03-11T00:45:42;7.13;;;2.70;;
12271;SDS011;6198;51.446;6.698;2023-03-11T00:48:08;7.33;;;2.60;;
12271;SDS011;6198;51.446;6.698;2023-03-11T00:50:35;8.93;;;2.53;;
12271;SDS011;6198;51.446;6.698;2023-03-11T00:53:01;8.83;;;2.80;;
12271;SDS011;6198;51.446;6.698;2023-03-11T00:55:29;5.47;;;2.47;;
12271;SDS011;6198;51.446;6.698;2023-03-11T00:57:59;7.93;;;2.50;;
12271;SDS011;6198;51.446;6.698;2023-03-11T01:00:26;9.03;;;2.73;;
12271;SDS011;6198;51.446;6.698;2023-03-11T01:02:53;4.90;;;2.17;;
12271;SDS011;6198;51.446;6.698;2023-03-11T01:05:20;7.20;;;2.27;;
12271;SDS011;6198;51.446;6.698;2023-03-11T01:07:46;8.00;;;2.83;;
12271;SDS011;6198;51.446;6.698;2023-03-11T01:10:12;8.70;;;2.85;;
12271;SDS011;6198;51.446;6.698;2023-03-11T01:12:38;10.73;;;3.20;;
12271;SDS011;6198;51.446;6.698;2023-03-11T01:15:05;8.13;;;2.50;;
12271;SDS011;6198;51.446;6.698;2023-03-11T01:17:32;11.07;;;3.00;;
12271;SDS011;6198;51.446;6.698;2023-03-11T01:19:58;12.67;;;3.30;;
12271;SDS011;6198;51.446;6.698;2023-03-11T01:22:24;8.90;;;3.17;;
12271;SDS011;6198;51.446;6.698;2023-03-11T01:24:50;8.20;;;2.60;;
12271;SDS011;6198;51.446;6.698;2023-03-11T01:27:16;7.70;;;2.50;;
12271;SDS011;6198;51.446;6.698;2023-03-11T01:29:42;18.53;;;3.50;;
12271;SDS011;6198;51.446;6.698;2023-03-11T01:32:08;13.43;;;3.23;;
12271;SDS011;6198;51.446;6.698;2023-03-11T01:34:34;18.00;;;3.33;;
12271;SDS011;6198;51.446;6.698;2023-03-11T01:37:01;15.10;;;3.37;;
12271;SDS011;6198;51.446;6.698;2023-03-11T01:39:27;13.33;;;4.17;;
12271;SDS011;6198;51.446;6.698;2023-03-11T01:41:53;14.60;;;3.83;;
12271;SDS011;6198;51.446;6.698;2023-03-11T01:44:20;13.23;;;4.33;;
12271;SDS011;6198;51.446;6.698;2023-03-11T01:49:21;16.73;;;4.67;;
12271;SDS011;6198;51.446;6.698;2023-03-11T01:51:48;10.10;;;4.77;;
12271;SDS011;6198;51.446;6.698;2023-03-11T01:54:20;14.53;;;4.57;;
12271;SDS011;6198;51.446;6.698;2023-03-11T01:56:48;7.57;;;3.83;;
12271;SDS011;6198;51.446;6.698;2023-03-11T01:59:17;13.70;;;4.20;;
12271;SDS011;6198;51.446;6.698;2023-03-11T02:01:48;9.97;;;3.83;;
12271;SDS011;6198;51.446;6.698;2023-03-11T02:04:17;13.07;;;4.70;;
12271;SDS011;6198;51.446;6.698;2023-03-11T02:06:43;11.17;;;5.70;;
12271;SDS011;6198;51.446;6.698;2023-03-11T02:09:10;9.77;;;4.10;;
12271;SDS011;6198;51.446;6.698;2023-03-11T02:11:35;11.30;;;3.77;;
12271;SDS011;6198;51.446;6.698;2023-03-11T02:14:02;11.17;;;3.73;;
12271;SDS011;6198;51.446;6.698;2023-03-11T02:16:29;11.67;;;3.83;;
12271;SDS011;6198;51.446;6.698;2023-03-11T02:18:56;9.97;;;3.60;;
12271;SDS011;6198;51.446;6.698;2023-03-11T02:21:24;11.73;;;3.53;;
12271;SDS011;6198;51.446;6.698;2023-03-11T02:26:40;12.93;;;2.73;;
12271;SDS011;6198;51.446;6.698;2023-03-11T02:29:08;11.00;;;3.67;;
12271;SDS011;6198;51.446;6.698;2023-03-11T02:31:36;11.87;;;3.50;;
12271;SDS011;6198;51.446;6.698;2023-03-11T02:34:02;18.33;;;3.10;;
12271;SDS011;6198;51.446;6.698;2023-03-11T02:36:37;11.13;;;2.90;;
12271;SDS011;6198;51.446;6.698;2023-03-11T02:39:03;9.20;;;3.20;;
12271;SDS011;6198;51.446;6.698;2023-03-11T02:41:30;6.27;;;2.30;;
12271;SDS011;6198;51.446;6.698;2023-03-11T02:43:56;14.83;;;3.00;;
12271;SDS011;6198;51.446;6.698;2023-03-11T02:46:23;8.53;;;3.13;;
12271;SDS011;6198;51.446;6.698;2023-03-11T02:48:49;13.60;;;2.73;;
12271;SDS011;6198;51.446;6.698;2023-03-11T02:51:15;5.90;;;2.47;;
12271;SDS011;6198;51.446;6.698;2023-03-11T02:53:46;10.93;;;2.20;;
12271;SDS011;6198;51.446;6.698;2023-03-11T02:56:12;9.83;;;2.40;;
12271;SDS011;6198;51.446;6.698;2023-03-11T02:58:38;7.10;;;2.47;;
12271;SDS011;6198;51.446;6.698;2023-03-11T03:01:04;7.83;;;2.33;;
12271;SDS011;6198;51.446;6.698;2023-03-11T03:03:30;6.23;;;2.53;;
12271;SDS011;6198;51.446;6.698;2023-03-11T03:05:56;7.73;;;2.70;;
12271;SDS011;6198;51.446;6.698;2023-03-11T03:08:22;6.73;;;2.60;;
12271;SDS011;6198;51.446;6.698;2023-03-11T03:10:48;11.17;;;2.50;;
12271;SDS011;6198;51.446;6.698;2023-03-11T03:13:14;11.70;;;2.80;;
12271;SDS011;6198;51.446;6.698;2023-03-11T03:15:40;9.63;;;2.67;;
12271;SDS011;6198;51.446;6.698;2023-03-11T03:18:06;10.33;;;3.47;;
12271;SDS011;6198;51.446;6.698;2023-03-11T03:20:32;15.10;;;2.50;;
12271;SDS011;6198;51.446;6.698;2023-03-11T03:22:57;9.40;;;2.70;;
12271;SDS011;6198;51.446;6.698;2023-03-11T03:25:23;9.07;;;2.53;;
12271;SDS011;6198;51.446;6.698;2023-03-11T03:27:49;4.80;;;2.40;;
12271;SDS011;6198;51.446;6.698;2023-03-11T03:30:15;11.03;;;2.87;;
12271;SDS011;6198;51.446;6.698;2023-03-11T03:32:41;8.00;;;2.50;;
12271;SDS011;6198;51.446;6.698;2023-03-11T03:35:07;8.23;;;2.90;;
12271;SDS011;6198;51.446;6.698;2023-03-11T03:37:34;10.13;;;2.27;;
12271;SDS011;6198;51.446;6.698;2023-03-11T03:40:01;8.97;;;2.47;;
12271;SDS011;6198;51.446;6.698;2023-03-11T03:42:31;8.43;;;3.00;;
12271;SDS011;6198;51.446;6.698;2023-03-11T03:44:57;7.87;;;2.93;;
12271;SDS011;6198;51.446;6.698;2023-03-11T03:47:23;10.90;;;2.60;;
12271;SDS011;6198;51.446;6.698;2023-03-11T03:49:49;7.30;;;2.27;;
12271;SDS011;6198;51.446;6.698;2023-03-11T03:52:15;10.03;;;2.53;;
12271;SDS011;6198;51.446;6.698;2023-03-11T03:54:41;8.77;;;3.03;;
12271;SDS011;6198;51.446;6.698;2023-03-11T03:57:07;12.53;;;3.00;;
12271;SDS011;6198;51.446;6.698;2023-03-11T03:59:33;10.33;;;2.57;;
12271;SDS011;6198;51.446;6.698;2023-03-11T04:01:59;10.93;;;2.93;;
12271;SDS011;6198;51.446;6.698;2023-03-11T04:04:25;5.70;;;2.93;;
12271;SDS011;6198;51.446;6.698;2023-03-11T04:06:51;13.63;;;2.40;;
12271;SDS011;6198;51.446;6.698;2023-03-11T04:09:17;6.77;;;2.33;;
12271;SDS011;6198;51.446;6.698;2023-03-11T04:11:43;7.97;;;2.40;;
12271;SDS011;6198;51.446;6.698;2023-03-11T04:14:09;10.13;;;2.60;;
12271;SDS011;6198;51.446;6.698;2023-03-11T04:16:35;5.87;;;2.23;;
12271;SDS011;6198;51.446;6.698;2023-03-11T04:19:01;10.40;;;2.70;;
12271;SDS011;6198;51.446;6.698;2023-03-11T04:21:29;9.97;;;2.80;;
12271;SDS011;6198;51.446;6.698;2023-03-11T04:23:55;9.00;;;2.33;;
12271;SDS011;6198;51.446;6.698;2023-03-11T04:26:21;7.90;;;2.23;;
12271;SDS011;6198;51.446;6.698;2023-03-11T04:28:47;10.37;;;2.93;;
12271;SDS011;6198;51.446;6.698;2023-03-11T04:31:13;4.87;;;2.20;;
12271;SDS011;6198;51.446;6.698;2023-03-11T04:33:39;6.80;;;2.73;;
12271;SDS011;6198;51.446;6.698;2023-03-11T04:36:06;12.20;;;2.57;;
12271;SDS011;6198;51.446;6.698;2023-03-11T04:38:32;8.70;;;3.13;;
12271;SDS011;6198;51.446;6.698;2023-03-11T04:41:02;8.27;;;2.50;;
12271;SDS011;6198;51.446;6.698;2023-03-11T04:43:28;4.20;;;2.37;;
12271;SDS011;6198;51.446;6.698;2023-03-11T04:45:54;9.67;;;2.83;;
12271;SDS011;6198;51.446;6.698;2023-03-11T04:48:20;6.27;;;2.40;;
12271;SDS011;6198;51.446;6.698;2023-03-11T04:50:46;9.47;;;3.10;;
12271;SDS011;6198;51.446;6.698;2023-03-11T04:53:11;9.07;;;2.67;;
12271;SDS011;6198;51.446;6.698;2023-03-11T04:55:37;9.27;;;2.70;;
12271;SDS011;6198;51.446;6.698;2023-03-11T04:58:04;8.17;;;2.60;;
12271;SDS011;6198;51.446;6.698;2023-03-11T05:00:30;4.43;;;2.67;;
12271;SDS011;6198;51.446;6.698;2023-03-11T05:02:56;9.63;;;3.03;;
12271;SDS011;6198;51.446;6.698;2023-03-11T05:05:22;9.53;;;3.40;;
12271;SDS011;6198;51.446;6.698;2023-03-11T05:07:48;6.23;;;2.80;;
12271;SDS011;6198;51.446;6.698;2023-03-11T05:10:14;10.30;;;3.00;;
12271;SDS011;6198;51.446;6.698;2023-03-11T05:12:46;8.03;;;3.03;;
12271;SDS011;6198;51.446;6.698;2023-03-11T05:15:12;9.20;;;2.80;;
12271;SDS011;6198;51.446;6.698;2023-03-11T05:17:38;8.13;;;3.20;;
12271;SDS011;6198;51.446;6.698;2023-03-11T05:20:04;7.97;;;2.90;;
12271;SDS011;6198;51.446;6.698;2023-03-11T05:22:31;10.47;;;3.93;;
12271;SDS011;6198;51.446;6.698;2023-03-11T05:24:57;8.33;;;2.40;;
12271;SDS011;6198;51.446;6.698;2023-03-11T05:27:23;4.50;;;2.30;;
12271;SDS011;6198;51.446;6.698;2023-03-11T05:29:49;8.43;;;3.40;;
12271;SDS011;6198;51.446;6.698;2023-03-11T05:32:15;5.37;;;2.50;;
12271;SDS011;6198;51.446;6.698;2023-03-11T05:34:43;8.73;;;2.87;;
12271;SDS011;6198;51.446;6.698;2023-03-11T05:37:09;4.70;;;2.87;;
12271;SDS011;6198;51.446;6.698;2023-03-11T05:39:35;6.17;;;2.97;;
12271;SDS011;6198;51.446;6.698;2023-03-11T05:42:02;7.20;;;2.60;;
12271;SDS011;6198;51.446;6.698;2023-03-11T05:44:28;17.40;;;3.13;;
12271;SDS011;6198;51.446;6.698;2023-03-11T05:46:53;7.73;;;2.83;;
12271;SDS011;6198;51.446;6.698;2023-03-11T05:49:19;8.90;;;2.90;;
12271;SDS011;6198;51.446;6.698;2023-03-11T05:51:46;9.43;;;3.60;;
12271;SDS011;6198;51.446;6.698;2023-03-11T05:54:12;9.77;;;3.27;;
12271;SDS011;6198;51.446;6.698;2023-03-11T05:56:39;13.53;;;3.97;;
12271;SDS011;6198;51.446;6.698;2023-03-11T05:59:06;6.13;;;3.07;;
12271;SDS011;6198;51.446;6.698;2023-03-11T06:01:31;10.47;;;3.03;;
12271;SDS011;6198;51.446;6.698;2023-03-11T06:03:58;12.07;;;3.57;;
12271;SDS011;6198;51.446;6.698;2023-03-11T06:06:24;10.07;;;3.50;;
12271;SDS011;6198;51.446;6.698;2023-03-11T06:08:50;6.63;;;3.10;;
12271;SDS011;6198;51.446;6.698;2023-03-11T06:11:16;10.13;;;3.43;;
12271;SDS011;6198;51.446;6.698;2023-03-11T06:13:43;7.77;;;2.87;;
12271;SDS011;6198;51.446;6.698;2023-03-11T06:16:09;11.77;;;3.03;;
12271;SDS011;6198;51.446;6.698;2023-03-11T06:18:35;8.60;;;3.13;;
12271;SDS011;6198;51.446;6.698;2023-03-11T06:21:01;9.40;;;2.50;;
12271;SDS011;6198;51.446;6.698;2023-03-11T06:23:27;9.53;;;3.40;;
12271;SDS011;6198;51.446;6.698;2023-03-11T06:25:57;14.10;;;4.03;;
12271;SDS011;6198;51.446;6.698;2023-03-11T06:28:24;7.83;;;3.43;;
12271;SDS011;6198;51.446;6.698;2023-03-11T06:30:50;12.03;;;3.60;;
12271;SDS011;6198;51.446;6.698;2023-03-11T06:33:16;9.93;;;3.50;;
12271;SDS011;6198;51.446;6.698;2023-03-11T06:35:42;10.47;;;3.30;;
12271;SDS011;6198;51.446;6.698;2023-03-11T06:38:08;12.00;;;3.63;;
12271;SDS011;6198;51.446;6.698;2023-03-11T06:40:35;9.83;;;3.33;;
12271;SDS011;6198;51.446;6.698;2023-03-11T06:43:01;5.93;;;2.93;;
12271;SDS011;6198;51.446;6.698;2023-03-11T06:45:27;6.23;;;3.17;;
12271;SDS011;6198;51.446;6.698;2023-03-11T06:47:53;15.83;;;3.63;;
12271;SDS011;6198;51.446;6.698;2023-03-11T06:50:19;18.90;;;10.23;;
12271;SDS011;6198;51.446;6.698;2023-03-11T06:52:47;153.10;;;66.67;;
12271;SDS011;6198;51.446;6.698;2023-03-11T06:55:13;219.60;;;92.40;;
12271;SDS011;6198;51.446;6.698;2023-03-11T06:57:39;82.77;;;35.37;;
12271;SDS011;6198;51.446;6.698;2023-03-11T07:00:05;72.53;;;31.20;;
12271;SDS011;6198;51.446;6.698;2023-03-11T07:02:34;43.47;;;21.23;;
12271;SDS011;6198;51.446;6.698;2023-03-11T07:05:00;36.17;;;18.43;;
12271;SDS011;6198;51.446;6.698;2023-03-11T07:07:26;12.83;;;6.63;;
12271;SDS011;6198;51.446;6.698;2023-03-11T07:09:53;13.50;;;7.77;;
12271;SDS011;6198;51.446;6.698;2023-03-11T07:12:19;34.87;;;18.53;;
12271;SDS011;6198;51.446;6.698;2023-03-11T07:14:46;29.60;;;17.90;;
12271;SDS011;6198;51.446;6.698;2023-03-11T07:17:12;21.23;;;8.53;;
12271;SDS011;6198;51.446;6.698;2023-03-11T07:19:38;7.97;;;4.70;;
12271;SDS011;6198;51.446;6.698;2023-03-11T07:22:05;10.37;;;3.93;;
12271;SDS011;6198;51.446;6.698;2023-03-11T07:24:30;8.17;;;3.50;;
12271;SDS011;6198;51.446;6.698;2023-03-11T07:26:56;14.40;;;4.80;;
12271;SDS011;6198;51.446;6.698;2023-03-11T07:29:22;11.40;;;3.47;;
12271;SDS011;6198;51.446;6.698;2023-03-11T07:31:48;11.53;;;3.50;;
12271;SDS011;6198;51.446;6.698;2023-03-11T07:34:14;8.83;;;3.20;;
12271;SDS011;6198;51.446;6.698;2023-03-11T07:36:41;7.77;;;3.00;;
12271;SDS011;6198;51.446;6.698;2023-03-11T07:39:09;9.97;;;2.67;;
12271;SDS011;6198;51.446;6.698;2023-03-11T07:41:37;7.53;;;2.87;;
12271;SDS011;6198;51.446;6.698;2023-03-11T07:44:03;10.20;;;2.73;;
12271;SDS011;6198;51.446;6.698;2023-03-11T07:46:29;5.57;;;2.73;;
12271;SDS011;6198;51.446;6.698;2023-03-11T07:48:55;9.13;;;2.73;;
12271;SDS011;6198;51.446;6.698;2023-03-11T07:51:23;6.27;;;2.90;;
12271;SDS011;6198;51.446;6.698;2023-03-11T07:53:50;4.90;;;2.77;;
12271;SDS011;6198;51.446;6.698;2023-03-11T07:56:17;5.80;;;2.57;;
12271;SDS011;6198;51.446;6.698;2023-03-11T07:58:43;4.70;;;2.63;;
12271;SDS011;6198;51.446;6.698;2023-03-11T08:01:10;9.20;;;2.67;;
12271;SDS011;6198;51.446;6.698;2023-03-11T08:03:37;7.67;;;2.83;;
12271;SDS011;6198;51.446;6.698;2023-03-11T08:06:10;4.40;;;2.87;;
12271;SDS011;6198;51.446;6.698;2023-03-11T08:08:37;9.60;;;2.77;;
12271;SDS011;6198;51.446;6.698;2023-03-11T08:11:03;5.50;;;2.50;;
12271;SDS011;6198;51.446;6.698;2023-03-11T08:13:28;7.40;;;2.70;;
12271;SDS011;6198;51.446;6.698;2023-03-11T08:15:54;5.33;;;2.40;;
12271;SDS011;6198;51.446;6.698;2023-03-11T08:18:20;8.53;;;3.07;;
12271;SDS011;6198;51.446;6.698;2023-03-11T08:20:46;7.10;;;2.80;;
12271;SDS011;6198;51.446;6.698;2023-03-11T08:23:12;10.03;;;2.67;;
12271;SDS011;6198;51.446;6.698;2023-03-11T08:25:38;4.83;;;3.00;;
12271;SDS011;6198;51.446;6.698;2023-03-11T08:28:04;12.63;;;6.30;;
12271;SDS011;6198;51.446;6.698;2023-03-11T08:30:31;8.57;;;2.90;;
12271;SDS011;6198;51.446;6.698;2023-03-11T08:32:57;9.07;;;2.60;;
12271;SDS011;6198;51.446;6.698;2023-03-11T08:35:23;6.30;;;2.47;;
12271;SDS011;6198;51.446;6.698;2023-03-11T08:37:50;5.97;;;2.63;;
12271;SDS011;6198;51.446;6.698;2023-03-11T08:40:16;7.37;;;2.93;;
12271;SDS011;6198;51.446;6.698;2023-03-11T08:42:42;8.60;;;3.00;;
12271;SDS011;6198;51.446;6.698;2023-03-11T08:45:09;5.67;;;2.00;;
12271;SDS011;6198;51.446;6.698;2023-03-11T08:47:35;9.13;;;1.90;;
12271;SDS011;6198;51.446;6.698;2023-03-11T08:50:03;11.03;;;2.10;;
12271;SDS011;6198;51.446;6.698;2023-03-11T08:52:29;6.20;;;2.50;;
12271;SDS011;6198;51.446;6.698;2023-03-11T08:54:56;5.83;;;2.40;;
12271;SDS011;6198;51.446;6.698;2023-03-11T08:57:22;4.87;;;2.87;;
12271;SDS011;6198;51.446;6.698;2023-03-11T08:59:48;6.13;;;2.43;;
12271;SDS011;6198;51.446;6.698;2023-03-11T09:02:14;5.77;;;2.50;;
12271;SDS011;6198;51.446;6.698;2023-03-11T09:04:40;4.63;;;2.10;;
12271;SDS011;6198;51.446;6.698;2023-03-11T09:07:06;7.37;;;2.23;;
12271;SDS011;6198;51.446;6.698;2023-03-11T09:09:31;8.43;;;1.90;;
12271;SDS011;6198;51.446;6.698;2023-03-11T09:11:57;9.67;;;1.93;;
12271;SDS011;6198;51.446;6.698;2023-03-11T09:14:23;8.87;;;2.17;;
12271;SDS011;6198;51.446;6.698;2023-03-11T09:16:49;8.20;;;2.20;;
12271;SDS011;6198;51.446;6.698;2023-03-11T09:19:15;3.30;;;1.60;;
12271;SDS011;6198;51.446;6.698;2023-03-11T09:21:41;7.50;;;3.77;;
12271;SDS011;6198;51.446;6.698;2023-03-11T09:24:07;4.10;;;1.80;;
12271;SDS011;6198;51.446;6.698;2023-03-11T09:26:33;3.90;;;2.20;;
12271;SDS011;6198;51.446;6.698;2023-03-11T09:29:00;4.10;;;1.83;;
12271;SDS011;6198;51.446;6.698;2023-03-11T09:31:26;4.00;;;1.87;;
12271;SDS011;6198;51.446;6.698;2023-03-11T09:33:52;5.00;;;2.30;;
12271;SDS011;6198;51.446;6.698;2023-03-11T09:36:20;6.03;;;2.20;;
12271;SDS011;6198;51.446;6.698;2023-03-11T09:38:46;3.23;;;1.67;;
12271;SDS011;6198;51.446;6.698;2023-03-11T09:46:32;4.97;;;1.70;;
12271;SDS011;6198;51.446;6.698;2023-03-11T09:49:09;4.63;;;1.90;;
12271;SDS011;6198;51.446;6.698;2023-03-11T09:51:45;3.57;;;1.33;;
12271;SDS011;6198;51.446;6.698;2023-03-11T09:54:12;4.33;;;1.30;;
12271;SDS011;6198;51.446;6.698;2023-03-11T09:56:38;4.27;;;1.77;;
12271;SDS011;6198;51.446;6.698;2023-03-11T09:59:08;10.37;;;2.40;;
12271;SDS011;6198;51.446;6.698;2023-03-11T10:01:44;3.67;;;1.20;;
12271;SDS011;6198;51.446;6.698;2023-03-11T10:04:17;6.80;;;1.60;;
12271;SDS011;6198;51.446;6.698;2023-03-11T10:06:44;6.33;;;1.50;;
12271;SDS011;6198;51.446;6.698;2023-03-11T10:11:42;4.57;;;1.90;;
12271;SDS011;6198;51.446;6.698;2023-03-11T10:24:42;3.30;;;1.60;;
12271;SDS011;6198;51.446;6.698;2023-03-11T10:27:14;5.70;;;1.47;;
12271;SDS011;6198;51.446;6.698;2023-03-11T10:29:51;4.07;;;1.40;;
12271;SDS011;6198;51.446;6.698;2023-03-11T10:32:23;4.30;;;1.30;;
12271;SDS011;6198;51.446;6.698;2023-03-11T10:35:15;6.70;;;1.67;;
12271;SDS011;6198;51.446;6.698;2023-03-11T10:37:42;2.53;;;1.70;;
12271;SDS011;6198;51.446;6.698;2023-03-11T10:42:43;5.13;;;1.60;;
12271;SDS011;6198;51.446;6.698;2023-03-11T10:45:13;4.63;;;1.60;;
12271;SDS011;6198;51.446;6.698;2023-03-11T10:47:40;4.13;;;1.37;;
12271;SDS011;6198;51.446;6.698;2023-03-11T10:50:07;6.80;;;1.90;;
12271;SDS011;6198;51.446;6.698;2023-03-11T10:52:40;6.57;;;1.80;;
12271;SDS011;6198;51.446;6.698;2023-03-11T10:55:10;3.60;;;1.47;;
12271;SDS011;6198;51.446;6.698;2023-03-11T10:57:43;5.30;;;1.80;;
12271;SDS011;6198;51.446;6.698;2023-03-11T11:00:14;5.70;;;1.77;;
12271;SDS011;6198;51.446;6.698;2023-03-11T11:02:53;3.67;;;1.70;;
12271;SDS011;6198;51.446;6.698;2023-03-11T11:07:50;7.73;;;1.60;;
12271;SDS011;6198;51.446;6.698;2023-03-11T11:12:56;3.53;;;1.50;;
12271;SDS011;6198;51.446;6.698;2023-03-11T11:15:36;4.23;;;1.73;;
12271;SDS011;6198;51.446;6.698;2023-03-11T11:18:03;3.13;;;1.70;;
12271;SDS011;6198;51.446;6.698;2023-03-11T11:20:30;4.13;;;1.70;;
12271;SDS011;6198;51.446;6.698;2023-03-11T11:22:58;5.70;;;2.03;;
12271;SDS011;6198;51.446;6.698;2023-03-11T11:27:54;4.03;;;1.90;;
12271;SDS011;6198;51.446;6.698;2023-03-11T11:30:20;4.13;;;1.77;;
12271;SDS011;6198;51.446;6.698;2023-03-11T11:32:47;6.53;;;2.37;;
12271;SDS011;6198;51.446;6.698;2023-03-11T11:35:16;4.00;;;2.00;;
12271;SDS011;6198;51.446;6.698;2023-03-11T11:37:47;3.80;;;1.90;;
12271;SDS011;6198;51.446;6.698;2023-03-11T11:43:24;5.67;;;2.20;;
12271;SDS011;6198;51.446;6.698;2023-03-11T11:45:43;7.43;;;2.30;;
12271;SDS011;6198;51.446;6.698;2023-03-11T11:48:18;5.30;;;2.10;;
12271;SDS011;6198;51.446;6.698;2023-03-11T11:50:47;4.97;;;1.90;;
12271;SDS011;6198;51.446;6.698;2023-03-11T11:53:35;3.73;;;2.07;;
12271;SDS011;6198;51.446;6.698;2023-03-11T11:56:04;4.57;;;2.40;;
12271;SDS011;6198;51.446;6.698;2023-03-11T11:58:30;5.83;;;2.30;;
12271;SDS011;6198;51.446;6.698;2023-03-11T12:01:06;7.97;;;2.37;;
12271;SDS011;6198;51.446;6.698;2023-03-11T12:06:13;6.43;;;2.00;;
12271;SDS011;6198;51.446;6.698;2023-03-11T12:08:46;5.33;;;1.70;;
12271;SDS011;6198;51.446;6.698;2023-03-11T12:11:20;6.20;;;2.47;;
12271;SDS011;6198;51.446;6.698;2023-03-11T12:16:32;4.07;;;1.90;;
12271;SDS011;6198;51.446;6.698;2023-03-11T12:21:47;7.17;;;2.20;;
12271;SDS011;6198;51.446;6.698;2023-03-11T12:27:03;9.30;;;1.70;;
12271;SDS011;6198;51.446;6.698;2023-03-11T12:29:31;7.57;;;1.77;;
12271;SDS011;6198;51.446;6.698;2023-03-11T12:31:58;5.00;;;1.80;;
12271;SDS011;6198;51.446;6.698;2023-03-11T12:34:25;3.37;;;1.97;;
12271;SDS011;6198;51.446;6.698;2023-03-11T12:36:52;7.73;;;2.20;;
12271;SDS011;6198;51.446;6.698;2023-03-11T12:39:21;6.90;;;2.10;;
12271;SDS011;6198;51.446;6.698;2023-03-11T12:41:48;3.53;;;1.80;;
12271;SDS011;6198;51.446;6.698;2023-03-11T12:44:21;11.33;;;7.10;;
12271;SDS011;6198;51.446;6.698;2023-03-11T12:49:27;3.50;;;1.67;;
12271;SDS011;6198;51.446;6.698;2023-03-11T12:54:40;4.23;;;1.90;;
12271;SDS011;6198;51.446;6.698;2023-03-11T13:07:50;4.67;;;2.20;;
12271;SDS011;6198;51.446;6.698;2023-03-11T13:10:20;3.90;;;1.90;;
12271;SDS011;6198;51.446;6.698;2023-03-11T13:12:58;3.17;;;1.67;;
12271;SDS011;6198;51.446;6.698;2023-03-11T13:15:25;5.00;;;1.80;;
12271;SDS011;6198;51.446;6.698;2023-03-11T13:17:57;4.03;;;1.60;;
12271;SDS011;6198;51.446;6.698;2023-03-11T13:33:33;2.23;;;1.70;;
12271;SDS011;6198;51.446;6.698;2023-03-11T13:36:20;3.90;;;1.80;;
12271;SDS011;6198;51.446;6.698;2023-03-11T13:41:20;4.50;;;1.77;;
12271;SDS011;6198;51.446;6.698;2023-03-11T13:43:47;2.50;;;1.60;;
12271;SDS011;6198;51.446;6.698;2023-03-11T13:46:21;4.33;;;2.00;;
12271;SDS011;6198;51.446;6.698;2023-03-11T13:48:49;3.70;;;1.93;;
12271;SDS011;6198;51.446;6.698;2023-03-11T13:51:23;7.33;;;2.33;;
12271;SDS011;6198;51.446;6.698;2023-03-11T13:53:53;5.07;;;1.93;;
12271;SDS011;6198;51.446;6.698;2023-03-11T13:56:30;5.13;;;1.57;;
12271;SDS011;6198;51.446;6.698;2023-03-11T14:02:16;9.17;;;1.87;;
12271;SDS011;6198;51.446;6.698;2023-03-11T14:04:35;1.77;;;1.40;;
12271;SDS011;6198;51.446;6.698;2023-03-11T14:07:18;6.87;;;1.63;;
12271;SDS011;6198;51.446;6.698;2023-03-11T14:09:44;3.27;;;1.50;;
12271;SDS011;6198;51.446;6.698;2023-03-11T14:12:10;4.10;;;1.50;;
12271;SDS011;6198;51.446;6.698;2023-03-11T14:14:41;3.60;;;1.70;;
12271;SDS011;6198;51.446;6.698;2023-03-11T14:17:12;4.67;;;1.50;;
12271;SDS011;6198;51.446;6.698;2023-03-11T14:19:38;2.47;;;1.60;;
12271;SDS011;6198;51.446;6.698;2023-03-11T14:22:06;5.90;;;1.67;;
12271;SDS011;6198;51.446;6.698;2023-03-11T14:24:32;4.03;;;1.70;;
12271;SDS011;6198;51.446;6.698;2023-03-11T14:26:59;3.33;;;1.50;;
12271;SDS011;6198;51.446;6.698;2023-03-11T14:29:32;3.10;;;1.47;;
12271;SDS011;6198;51.446;6.698;2023-03-11T14:32:24;4.10;;;1.47;;
12271;SDS011;6198;51.446;6.698;2023-03-11T14:34:45;2.87;;;1.33;;
12271;SDS011;6198;51.446;6.698;2023-03-11T14:37:54;3.27;;;1.50;;
12271;SDS011;6198;51.446;6.698;2023-03-11T14:40:01;5.30;;;1.70;;
12271;SDS011;6198;51.446;6.698;2023-03-11T14:42:28;4.23;;;1.53;;
12271;SDS011;6198;51.446;6.698;2023-03-11T14:45:02;6.87;;;2.00;;
12271;SDS011;6198;51.446;6.698;2023-03-11T14:47:34;3.53;;;1.70;;
12271;SDS011;6198;51.446;6.698;2023-03-11T14:50:03;2.80;;;1.60;;
12271;SDS011;6198;51.446;6.698;2023-03-11T14:53:04;4.87;;;1.70;;
12271;SDS011;6198;51.446;6.698;2023-03-11T14:55:25;3.53;;;2.03;;
12271;SDS011;6198;51.446;6.698;2023-03-11T14:58:14;2.37;;;1.70;;
12271;SDS011;6198;51.446;6.698;2023-03-11T15:00:42;2.23;;;1.60;;
12271;SDS011;6198;51.446;6.698;2023-03-11T15:05:53;5.03;;;1.60;;
12271;SDS011;6198;51.446;6.698;2023-03-11T15:08:21;2.83;;;1.60;;
12271;SDS011;6198;51.446;6.698;2023-03-11T15:11:07;4.67;;;1.53;;
12271;SDS011;6198;51.446;6.698;2023-03-11T15:13:40;6.60;;;1.80;;
12271;SDS011;6198;51.446;6.698;2023-03-11T15:16:07;1.63;;;1.53;;
12271;SDS011;6198;51.446;6.698;2023-03-11T15:18:45;6.07;;;1.50;;
12271;SDS011;6198;51.446;6.698;2023-03-11T15:21:12;2.37;;;1.70;;
12271;SDS011;6198;51.446;6.698;2023-03-11T15:23:43;2.30;;;1.60;;
12271;SDS011;6198;51.446;6.698;2023-03-11T15:26:15;4.73;;;1.57;;
12271;SDS011;6198;51.446;6.698;2023-03-11T15:28:43;7.17;;;2.00;;
12271;SDS011;6198;51.446;6.698;2023-03-11T15:33:47;6.37;;;2.27;;
12271;SDS011;6198;51.446;6.698;2023-03-11T15:36:28;3.77;;;1.80;;
12271;SDS011;6198;51.446;6.698;2023-03-11T15:41:37;4.43;;;1.53;;
12271;SDS011;6198;51.446;6.698;2023-03-11T15:44:03;2.83;;;1.50;;
12271;SDS011;6198;51.446;6.698;2023-03-11T15:46:31;2.90;;;1.73;;
12271;SDS011;6198;51.446;6.698;2023-03-11T15:48:57;3.23;;;2.03;;
12271;SDS011;6198;51.446;6.698;2023-03-11T15:51:23;4.17;;;1.80;;
12271;SDS011;6198;51.446;6.698;2023-03-11T15:53:49;3.90;;;1.90;;
12271;SDS011;6198;51.446;6.698;2023-03-11T15:56:18;4.93;;;2.00;;
12271;SDS011;6198;51.446;6.698;2023-03-11T15:58:47;3.73;;;1.80;;
12271;SDS011;6198;51.446;6.698;2023-03-11T16:01:13;4.37;;;1.80;;
12271;SDS011;6198;51.446;6.698;2023-03-11T16:03:39;3.77;;;1.50;;
12271;SDS011;6198;51.446;6.698;2023-03-11T16:06:05;5.93;;;1.93;;
12271;SDS011;6198;51.446;6.698;2023-03-11T16:08:31;2.30;;;1.60;;
12271;SDS011;6198;51.446;6.698;2023-03-11T16:10:58;2.30;;;1.40;;
12271;SDS011;6198;51.446;6.698;2023-03-11T16:13:24;2.77;;;1.83;;
12271;SDS011;6198;51.446;6.698;2023-03-11T16:15:50;2.40;;;1.70;;
12271;SDS011;6198;51.446;6.698;2023-03-11T16:18:16;4.13;;;1.90;;
12271;SDS011;6198;51.446;6.698;2023-03-11T16:20:46;5.10;;;3.33;;
12271;SDS011;6198;51.446;6.698;2023-03-11T16:23:18;2.93;;;1.80;;
12271;SDS011;6198;51.446;6.698;2023-03-11T16:25:45;4.63;;;2.17;;
12271;SDS011;6198;51.446;6.698;2023-03-11T16:28:12;11.70;;;7.23;;
12271;SDS011;6198;51.446;6.698;2023-03-11T16:30:38;11.37;;;7.47;;
12271;SDS011;6198;51.446;6.698;2023-03-11T16:33:04;8.33;;;4.53;;